LIRZ/PEG METAR and TAF weather

Enter ICAO airport designator
Station Type Date Time Source
LIRZ METAR 2022/06/27 17:20 UTC NOAA

LIRZ 271720Z AUTO 19004KT 160V220 9999 NCD 34/10 Q1014


Station Type Date Time Source
LIRZ Decoded METAR 2022/06/27 17:20 UTC NOAA

Perugia, Italy (LIRZ) 43-05N 012-30E 205M
Jun 27, 2022 - 01:20 PM EDT / 2022.06.27 1720 UTC
Wind: from the S (190 degrees) at 5 MPH (4 KT) (direction variable):0
Visibility: greater than 7 mile(s):0
Temperature: 93 F (34 C)
Dew Point: 50 F (10 C)
Relative Humidity: 23%
Pressure (altimeter): 29.94 in. Hg (1014 hPa)
ob: LIRZ 271720Z AUTO 19004KT 160V220 9999 NCD 34/10 Q1014
cycle: 17

Station Type Date Time Source
LIRZ TAF 2022/06/27 18:21 UTC NOAA

TAF LIRZ 271700Z 2718/2818 20012KT CAVOK
BECMG 2718/2720 VRB05KT
BECMG 2807/2809 22010KT

Example: see airport list